岡山グライダークラブ活動状況掲示板あなたは無料カウンター人目の訪問者です

岡山グライダークラブ
岡山市浦安南町639-1 岡南飛行場
 使用機:シャイベ式 SF25C型 ファルケ   JA2330
      ヴァレンティン式17E型 タイフーン  JA2342
 練習日:毎日曜日  クラブルーム:電話 086-265-1810
この掲示板は岡山グライダークラブの活動状況をお知らせする掲示板です。
!!!この掲示板は投稿規制をしています。!!!
クラブ関連各種情報は 岡山グライダークラブクラブルーム      を       .
  ブリーフイング情報は  岡山グライダークラブブリーフィングルーム  をご覧下さい。 .
※写真はクリックすると拡大して見ることが出来ます。
岡南飛行場へのアクセス等は 岡南飛行場管理事務所 をご覧ください。
クラブの ホームページ ができました。

 
02月09日
by OGC at 2020/2/9(日) 20:53:11 No.20200209205030  削除コメント
1024 x 768 x 72,238バイト
No.1

02月09日
本日の参加者
  会員      19名
  その他      0名


@本日の様子


METAR
RJBK 090000Z 29005KT 260V340 30KM FEW025CU 03/M03 Q1024 A3026
RJOB 090000Z 31006KT 270V350 9999 -SHSN FEW020 SCT045 01/M04 Q1023
RJOT 090000Z 25004KT 210V280 9999 FEW025 02/M05 Q1023
RJOA 090000Z 35003KT 270V060 9999 FEW015 SCT025 01/M07 Q1023
TAF
RJOB 082309Z 0900/1006 35010KT 9999 FEW025 SCT045
     BECMG 0909/0911 05004KT
     BECMG 0921/1000 26011KT
RJOT 082311Z 0900/1006 26007KT 9999 FEW030 SCT050
     BECMG 0909/0911 15006KT
     BECMG 0918/0921 27014KT
RJOA 082308Z 0900/1006 34008KT 9999 FEW030 SCT045
     BECMG 0907/0909 05006KT
     BECMG 0918/0921 28005KT
     BECMG 1000/1003 29015KT

本日の天候は弱い横風で絶好の横風着陸訓練日和、朝方、少なかった積雲が至る所ででき、みんなのサーマルへの期待が膨らんでいました。
みんなの期待が多すぎたのか、積雲が出来すぎ日射が少なくなり、みんなの期待も小さくなっていました。
また、本日4名の特定技能審査も行われ、全員、無事合格しました。

解散    17:10

1番機  10:45離陸 撤収機  16:20着陸 

SF25C JA2330 ファルケ     07Flt.3h20min  
17E   JA2342 タイフーン    07Flt.2h50min  
合計                    14Flt.6h10min

    << 戻る || ホームページ || 最新の掲示板へ